Stations météo

réclame
Mon MeteoGroup
Blahammaren A, Suède (2210): Température de l'air & dewpoint: 14.01.2020 08:00:00 - 20.01.2020 08:00:00 (CET)Blahammaren A, Suède (2210): Vitesse du vent & gusts: 14.01.2020 08:00:00 - 20.01.2020 08:00:00 (CET)Blahammaren A, Suède (2210): Direction du vent: 14.01.2020 08:00:00 - 20.01.2020 08:00:00 (CET)
Date & Time tt [°C] td [°C] ff [km/h] ff [knt] fx [km/h] fx [knt] dd
20.01.2020 08:00:00 - -0,2 47 25 68 37 W
20.01.2020 07:00:00 -0,5 -0,6 24 13 64 35 W
20.01.2020 06:00:00 - -0,3 38 21 71 38 W
20.01.2020 05:00:00 -2,1 -2,2 28 15 44 24 WSW
20.01.2020 04:00:00 -2,4 -2,5 30 16 42 23 WSW
20.01.2020 03:00:00 -3,2 -3,5 38 21 68 37 SW
20.01.2020 02:00:00 -3,7 -4,0 - - 63 34 -
20.01.2020 01:00:00 -3,8 -4,1 53 29 74 40 SSW
20.01.2020 00:00:00 -4,2 -4,5 57 31 69 37 S
19.01.2020 23:00:00 -4,8 -5,2 55 30 65 35 S
19.01.2020 22:00:00 -5,6 -6,1 41 22 46 25 S
19.01.2020 21:00:00 -5,0 -5,4 31 17 38 20 SSW
19.01.2020 20:00:00 -4,9 -5,3 14 7 45 25 SW
19.01.2020 19:00:00 -5,1 -5,5 27 15 52 28 W
19.01.2020 18:00:00 -5,1 -5,6 - - - - -
19.01.2020 17:00:00 -4,8 -5,2 - - - - -
19.01.2020 16:00:00 -5,4 -5,9 - - - - -
19.01.2020 15:00:00 -5,0 -5,4 - - - - -
19.01.2020 14:00:00 -5,1 -5,5 - - - - -
19.01.2020 13:00:00 -4,8 -5,2 - - - - -
19.01.2020 12:00:00 -4,5 -4,9 - - - - -
19.01.2020 11:00:00 -4,2 -4,6 - - - - -
19.01.2020 10:00:00 -4,0 -4,3 - - - - -
19.01.2020 09:00:00 -3,9 -4,2 - - - - -
19.01.2020 08:00:00 -3,7 -4,0 - - - - -
19.01.2020 07:00:00 -3,5 -3,8 - - - - -
19.01.2020 06:00:00 -3,1 -3,2 - - 54 29 -
19.01.2020 05:00:00 -2,9 -3,0 - - 54 29 -
19.01.2020 04:00:00 -2,6 -2,7 39 21 73 39 WNW
19.01.2020 03:00:00 -2,5 -2,6 37 20 74 40 W
19.01.2020 02:00:00 -2,6 -2,7 37 20 61 33 W
19.01.2020 01:00:00 -3,2 -3,5 31 17 43 23 WSW
19.01.2020 00:00:00 -3,4 -3,9 27 15 57 31 SW
18.01.2020 23:00:00 -3,2 -3,9 29 16 45 24 WSW
18.01.2020 22:00:00 -3,0 -4,3 25 14 43 23 WSW
18.01.2020 21:00:00 -2,6 -4,5 24 13 43 23 W
18.01.2020 20:00:00 -2,8 -4,7 27 14 48 26 W
18.01.2020 19:00:00 -4,1 -5,1 21 11 40 22 NW
18.01.2020 18:00:00 -3,2 -5,5 34 18 44 24 WNW
18.01.2020 17:00:00 -1,7 -6,4 29 16 45 25 WNW
18.01.2020 16:00:00 -1,6 -6,5 19 11 27 15 NW
18.01.2020 15:00:00 -1,7 -5,9 20 11 27 15 NW
18.01.2020 14:00:00 -2,0 -5,2 18 10 23 12 W
18.01.2020 13:00:00 -2,9 -4,0 16 8 19 11 SW
18.01.2020 12:00:00 -3,0 -3,8 18 10 25 13 SW
18.01.2020 11:00:00 -2,6 -3,1 22 12 35 19 SSW
18.01.2020 10:00:00 -2,2 -3,0 23 13 36 19 SSW
18.01.2020 09:00:00 -2,3 -3,1 31 17 37 20 S
18.01.2020 08:00:00 -2,1 -3,7 31 17 - - S
18.01.2020 07:00:00 -2,2 -3,3 30 16 36 20 S
18.01.2020 06:00:00 -2,0 -3,6 32 17 36 20 S
18.01.2020 05:00:00 -2,1 -3,4 29 16 38 21 S
18.01.2020 04:00:00 -1,8 -2,8 35 19 41 22 S
18.01.2020 03:00:00 -1,8 -2,2 31 17 49 26 S
18.01.2020 02:00:00 -1,6 -2,2 29 15 42 23 S
18.01.2020 01:00:00 -1,6 -2,0 37 20 50 27 S
18.01.2020 00:00:00 -1,0 -2,6 30 16 42 23 S
17.01.2020 23:00:00 -1,0 -2,4 28 15 37 20 SE
17.01.2020 22:00:00 - -2,3 30 16 44 24 S
17.01.2020 21:00:00 - -2,2 30 16 46 25 S
17.01.2020 20:00:00 -0,8 -1,5 35 19 50 27 SSW
17.01.2020 19:00:00 -0,5 -1,2 45 24 59 32 SSW
17.01.2020 18:00:00 - -2,0 46 25 58 31 S
17.01.2020 17:00:00 -1,1 -2,2 38 21 44 24 S
17.01.2020 16:00:00 - -1,8 34 19 51 28 S
17.01.2020 15:00:00 -0,7 -1,7 44 24 60 32 S
17.01.2020 14:00:00 - -2,2 48 26 60 32 S
17.01.2020 13:00:00 -0,7 -2,6 45 24 60 33 S
17.01.2020 12:00:00 -0,8 -2,5 50 27 64 35 S
17.01.2020 11:00:00 -1,0 -2,6 52 28 64 34 S
17.01.2020 10:00:00 -1,0 -2,3 45 24 64 35 S
17.01.2020 09:00:00 -1,7 -2,0 56 31 69 37 S
17.01.2020 08:00:00 -1,1 -2,4 54 29 80 43 S
17.01.2020 07:00:00 -2,1 -3,2 56 30 82 45 S
17.01.2020 06:00:00 -2,2 -5,3 58 31 72 39 S
17.01.2020 05:00:00 -1,3 -5,3 55 30 72 39 S
17.01.2020 04:00:00 -2,5 -3,5 54 29 66 36 SSW
17.01.2020 03:00:00 -2,3 -6,1 40 21 48 26 S
17.01.2020 02:00:00 -2,2 -6,6 36 20 49 26 S
17.01.2020 01:00:00 -3,3 -6,6 37 20 53 28 S
17.01.2020 00:00:00 -3,7 -7,1 42 23 50 27 S
16.01.2020 23:00:00 -3,7 -6,8 32 17 50 27 SSW
16.01.2020 22:00:00 -3,0 -6,0 39 21 46 25 SSW
16.01.2020 21:00:00 -2,6 -4,8 38 21 48 26 SSW
16.01.2020 20:00:00 -2,6 -4,5 34 18 41 22 SSW
16.01.2020 19:00:00 -1,3 -3,3 29 16 45 24 SW
16.01.2020 18:00:00 -1,3 -2,1 35 19 54 29 SW
16.01.2020 17:00:00 -1,8 -1,9 41 22 59 32 SW
16.01.2020 16:00:00 -1,8 -2,9 45 25 58 31 SSW
16.01.2020 15:00:00 -2,1 -3,2 39 21 61 33 SSW
16.01.2020 14:00:00 -2,4 -4,3 37 20 53 28 SSW
16.01.2020 13:00:00 -3,0 -4,6 41 22 55 30 SSW
16.01.2020 12:00:00 -3,0 -4,7 43 23 51 28 SSW
16.01.2020 11:00:00 - - - - - - -
16.01.2020 10:00:00 - - - - - - -
16.01.2020 09:00:00 -3,3 -4,7 43 23 59 32 SSW
16.01.2020 08:00:00 -2,8 -4,7 49 26 73 39 SSW
16.01.2020 07:00:00 -2,9 -4,5 51 27 70 38 SSW
16.01.2020 06:00:00 -3,2 -4,6 47 26 59 32 S
16.01.2020 05:00:00 -3,8 -5,1 43 23 62 33 S
16.01.2020 04:00:00 -4,2 -5,6 46 25 61 33 S
16.01.2020 03:00:00 -4,6 -6,3 46 25 65 35 S
16.01.2020 02:00:00 -4,5 -6,9 49 26 62 33 S
16.01.2020 01:00:00 -4,9 -7,5 32 18 50 27 S
16.01.2020 00:00:00 -5,3 -7,6 32 17 54 29 SSE
15.01.2020 23:00:00 -4,8 -7,9 43 23 63 34 S
15.01.2020 22:00:00 -4,7 -7,3 47 25 61 33 S
15.01.2020 21:00:00 -4,2 -8,3 45 24 59 32 S
15.01.2020 20:00:00 -4,9 -8,1 37 20 49 27 SSE
15.01.2020 19:00:00 -5,3 -7,3 42 23 54 29 S
15.01.2020 18:00:00 -5,7 -7,7 35 19 44 24 SSE
15.01.2020 17:00:00 -5,5 -7,5 38 21 46 25 S
15.01.2020 16:00:00 -5,1 -6,9 32 17 41 22 S
15.01.2020 15:00:00 -4,9 -6,1 32 17 40 21 S
15.01.2020 14:00:00 -4,8 -5,3 22 12 32 17 SSE
15.01.2020 13:00:00 -3,8 -4,2 21 12 37 20 SSW
15.01.2020 12:00:00 -3,5 -3,8 31 17 41 22 SW
15.01.2020 11:00:00 -3,4 -3,7 31 17 43 23 SSW
15.01.2020 10:00:00 -3,4 -3,7 29 16 47 26 S
15.01.2020 09:00:00 -3,4 -3,7 45 24 55 30 S
15.01.2020 08:00:00 -3,1 -3,2 - - 48 26 -
15.01.2020 07:00:00 -3,8 -4,1 49 26 62 34 SE
15.01.2020 06:00:00 -3,9 -4,2 54 29 74 40 SSE
15.01.2020 05:00:00 -3,8 -4,2 61 33 - - SSE
15.01.2020 04:00:00 -4,1 -4,6 51 28 69 37 SSE
15.01.2020 03:00:00 -4,1 -5,3 46 25 69 38 SSE
15.01.2020 02:00:00 -3,5 -6,8 35 19 64 35 SSE
15.01.2020 01:00:00 -4,0 -8,1 35 19 52 28 S
15.01.2020 00:00:00 -4,5 -8,6 46 25 59 32 S
14.01.2020 23:00:00 -4,4 -7,5 51 28 65 35 S
14.01.2020 22:00:00 -4,6 -7,4 46 25 54 29 SSW
14.01.2020 21:00:00 -4,8 -6,6 42 23 54 29 S
14.01.2020 20:00:00 -4,3 -6,0 41 22 49 26 SSW
14.01.2020 19:00:00 -4,0 -5,0 40 21 53 28 S
14.01.2020 18:00:00 -3,2 -4,0 47 25 64 34 S
14.01.2020 17:00:00 -2,9 -3,9 55 30 71 38 SSW
14.01.2020 16:00:00 -3,2 -4,0 59 32 76 41 S
14.01.2020 15:00:00 -2,9 -4,5 61 33 79 43 SSW
14.01.2020 14:00:00 -3,1 -4,2 60 33 79 42 S
14.01.2020 13:00:00 -3,2 -4,2 63 34 85 46 S
14.01.2020 12:00:00 -2,8 -3,6 69 37 96 52 S
14.01.2020 11:00:00 -2,6 -3,6 75 40 99 54 S
14.01.2020 10:00:00 -3,1 -3,6 81 44 107 58 S
14.01.2020 09:00:00 -3,0 -3,3 84 46 116 63 S
14.01.2020 08:00:00 -3,2 -3,7 98 53 116 63 S

tt = Température de l'air
td = dewpoint
ff = Vitesse du vent
fx = gusts
dd = Direction du vent

stations d'obs. à proximité